Artois, California
Current Conditions -  °F | °C
As of 7:47 AM on Thursday 30 Oct 2014 (Local Time) from KCIC Reporting Station
Broken Clouds Broken Clouds  
Wind Chill: 52°   Ceiling: 25000
Heat Index: 52°   Visibility: 40mi
Dew Point: 48°   Wind: 5mph
Humidity: 88%   Direction: NA
Pressure: 29.86"   Gusts: NA
Location:  39.62°N, 122.2°W
Report Text: KCIC 301447Z VRB04KT 40SM SCT180 BKN250 11/09 A2986
Loading
Personal Weather Stations






























Interactive Weather Map
Tropical Storm Tracking
New forecast layout! Learn more

10-Day Weather Forecast

Advertisements
Track Severe Weather on mobile